Hovedside
METAR-TAF:

METAR-TAF

Lufthavner :

Tsjita, Russland

breddegrad: 52-05N, lengdegrad: 113-29E, høyde over havet: 685 m

Gjeldene værobservasjon

Denne rapporten ble laget for 29 minutter siden, klokken 18:00 UTC
Vind 6 kt fra Vest
Temperatur 4°C
Luftfuktighet 41%
Trykk 1004 hPa
Sikt 10 km eller mer

METAR: UIAA 241800Z 28003MPS 9999 NSC 04/M08 Q1004 R29/70D NOSIG RMK QFE695/0927

Tid: 03:29 (18:29 UTC)

Varsel

Denne rapporten ble laget for 1 time og 29 minutter siden, klokken 17:00 UTC
Varsel gyldig fra 24. klokken 18 UTC til 25. klokken 18 UTC
Vind 10 kt fra Vest med vindkast opp mot 23 kt
Sikt 10 km eller mer
Spredte skyer i en høyde av 4000 ft, Bygeskyer.
Midlertidig
fra 24. klokken 18 UTC til 24. klokken 24 UTC
Vind 6 kt fra Sør-sørvest
Midlertidig
fra 25. klokken 00 UTC til 25. klokken 12 UTC
Vind 19 kt fra Vest-nordvest med vindkast opp mot 35 kt

TAF: UIAA 241700Z 2418/2518 26005G12MPS 9999 SCT040CB TEMPO 2418/2424 20003MPS TEMPO 2500/2512 30010G18MPS

Værobservasjoner og værvarsel for over 4000 flyplasser (METAR- og TAF-rapporter).

Tilgjengelige stasjoner er representert av de røde og gule prikkene på kartet.

Hold musepekeren over prikken for å se navnet på stasjonen.

Klikk så for å se værobservasjoner og -varsler.

For å forandre kartet kan du klikke på den grønne knappen med svart kryss for å zoome inn, på den grønne knappen med strek for å zoome ut, eller på de grønne pilene for å se tilstøtende kart.


METAR-TAF: